Time;durP1;ratioP1;P1;durP2;ratioP2;P2;SDS_P1;SDS_P2;PMS_P1;PMS_P2;Temp;Humidity;BMP_temperature;BMP_pressure;BME280_temperature;BME280_humidity;BME280_pressure;Samples;Min_cycle;Max_cycle;Signal;HPM_P1;HPM_P2
2023/08/28 00:00:20;;;;;;;8.18;4.80;;;;;;;12.79;100.00;100979.66;5071464;28;20056;-65
2023/08/28 00:02:48;;;;;;;7.90;5.22;;;;;;;12.76;100.00;100974.63;5071660;28;20048;-65
2023/08/28 00:05:17;;;;;;;7.75;5.10;;;;;;;12.68;100.00;100967.25;5070355;28;20075;-65
2023/08/28 00:07:45;;;;;;;9.55;4.93;;;;;;;12.72;100.00;100974.94;5066203;28;20036;-64
2023/08/28 00:10:13;;;;;;;9.27;5.47;;;;;;;12.70;100.00;100971.56;5067908;28;20499;-64
2023/08/28 00:12:43;;;;;;;8.13;5.03;;;;;;;12.65;100.00;100975.38;5067456;28;20521;-65
2023/08/28 00:15:12;;;;;;;7.28;5.10;;;;;;;12.66;100.00;100969.13;5068169;28;20136;-65
2023/08/28 00:17:40;;;;;;;8.50;5.15;;;;;;;12.59;100.00;100967.06;5067004;28;20044;-65
2023/08/28 00:20:08;;;;;;;7.90;5.40;;;;;;;12.59;100.00;100975.81;5068114;28;20169;-65
2023/08/28 00:22:37;;;;;;;9.18;5.47;;;;;;;12.58;100.00;100976.75;5065979;28;20044;-66
2023/08/28 00:25:07;;;;;;;10.43;5.70;;;;;;;12.52;100.00;100974.56;5067960;28;20044;-65
2023/08/28 00:27:36;;;;;;;9.02;5.38;;;;;;;12.51;100.00;100976.34;5066233;28;20048;-65
2023/08/28 00:30:06;;;;;;;8.65;5.50;;;;;;;12.57;100.00;100974.22;5071479;28;20040;-65
2023/08/28 00:32:35;;;;;;;7.93;5.47;;;;;;;12.54;100.00;100974.47;5069396;28;20051;-64
2023/08/28 00:35:06;;;;;;;8.43;5.68;;;;;;;12.47;100.00;100981.97;5066254;28;20522;-65
2023/08/28 00:37:34;;;;;;;7.35;5.38;;;;;;;12.36;100.00;100984.53;5065754;28;20048;-66
2023/08/28 00:40:03;;;;;;;9.90;5.82;;;;;;;12.23;100.00;100995.06;5066336;28;20147;-65
2023/08/28 00:42:31;;;;;;;11.23;5.75;;;;;;;12.22;100.00;100999.50;5070784;28;20045;-65
2023/08/28 00:44:59;;;;;;;8.38;5.57;;;;;;;12.23;100.00;101003.84;5072173;28;20510;-65
2023/08/28 00:47:29;;;;;;;7.22;5.15;;;;;;;12.36;100.00;101002.97;5075038;28;20098;-65
2023/08/28 00:49:57;;;;;;;9.75;5.25;;;;;;;12.43;100.00;100994.50;5072721;28;20044;-65
2023/08/28 00:52:25;;;;;;;7.40;5.18;;;;;;;12.40;100.00;100986.00;5068375;28;20124;-65
2023/08/28 00:54:54;;;;;;;8.50;5.25;;;;;;;12.43;100.00;100993.69;5071247;28;20105;-64
2023/08/28 00:57:23;;;;;;;8.75;5.53;;;;;;;12.41;100.00;100991.16;5071141;28;20411;-65
2023/08/28 00:59:52;;;;;;;9.27;5.43;;;;;;;12.45;100.00;100994.44;5071109;28;20061;-64
2023/08/28 01:02:20;;;;;;;9.43;5.55;;;;;;;12.37;100.00;100997.59;5073096;28;20044;-66
2023/08/28 01:04:54;;;;;;;8.23;4.85;;;;;;;12.41;100.00;100992.97;5071744;28;20543;-65
2023/08/28 01:07:24;;;;;;;9.15;5.07;;;;;;;12.31;100.00;100998.00;5069591;28;20131;-65
2023/08/28 01:10:02;;;;;;;10.15;5.63;;;;;;;12.35;100.00;100996.84;5070833;28;20052;-65
2023/08/28 01:12:41;;;;;;;11.32;5.18;;;;;;;12.34;100.00;101001.28;5072742;28;20053;-65
2023/08/28 01:15:15;;;;;;;7.95;5.32;;;;;;;12.30;100.00;100997.19;5071986;28;20068;-65
2023/08/28 01:17:44;;;;;;;7.75;5.20;;;;;;;12.25;100.00;100990.56;5069791;28;20499;-66
2023/08/28 01:20:16;;;;;;;10.77;5.38;;;;;;;12.25;100.00;100988.75;5070833;28;20049;-66
2023/08/28 01:22:57;;;;;;;8.38;5.18;;;;;;;12.21;100.00;100979.38;5067739;28;20064;-66
2023/08/28 01:25:28;;;;;;;8.38;5.18;;;;;;;12.17;100.00;100981.38;5070322;28;20179;-65
2023/08/28 01:27:58;;;;;;;9.40;5.65;;;;;;;12.17;100.00;100984.03;5070602;28;20048;-66
2023/08/28 01:30:27;;;;;;;8.07;5.20;;;;;;;12.18;100.00;100975.16;5074394;28;20139;-65
2023/08/28 01:32:55;;;;;;;13.40;5.28;;;;;;;12.07;100.00;100977.69;5073920;28;20048;-53
2023/08/28 01:35:25;;;;;;;12.02;5.82;;;;;;;12.14;100.00;100975.47;5074175;28;20427;-53
2023/08/28 01:38:12;;;;;;;15.85;5.43;;;;;;;12.10;100.00;100972.19;5074057;28;20044;-52
2023/08/28 01:40:49;;;;;;;8.65;5.45;;;;;;;12.05;100.00;100973.47;5073939;28;20036;-52
2023/08/28 01:43:21;;;;;;;8.15;5.55;;;;;;;12.04;100.00;100971.78;5073980;28;20036;-53
2023/08/28 01:45:51;;;;;;;9.60;6.00;;;;;;;12.05;100.00;100970.84;5072306;28;20048;-54
2023/08/28 01:48:19;;;;;;;8.73;5.25;;;;;;;12.02;100.00;100976.31;5072692;28;20063;-53
2023/08/28 01:50:47;;;;;;;8.88;5.63;;;;;;;11.97;100.00;100980.13;5072355;28;20063;-54
2023/08/28 01:53:15;;;;;;;9.27;5.88;;;;;;;11.95;100.00;100978.53;5073672;28;20404;-52
2023/08/28 01:56:17;;;;;;;8.50;6.38;;;;;;;11.89;100.00;100981.56;5073613;28;20048;-53
2023/08/28 01:58:47;;;;;;;10.98;5.72;;;;;;;11.89;100.00;100981.56;5073732;28;20056;-54
2023/08/28 02:01:15;;;;;;;9.75;5.38;;;;;;;11.94;100.00;100972.44;5073372;28;20043;-54
2023/08/28 02:03:44;;;;;;;8.48;5.75;;;;;;;11.95;100.00;100971.47;5073685;28;20040;-54
2023/08/28 02:06:12;;;;;;;9.13;5.43;;;;;;;11.93;100.00;100977.75;5072507;28;20455;-54
2023/08/28 02:08:41;;;;;;;8.65;5.30;;;;;;;11.97;100.00;100966.94;5072297;28;20063;-53
2023/08/28 02:11:09;;;;;;;9.93;5.35;;;;;;;11.97;100.00;100964.31;5072937;28;20059;-54
2023/08/28 02:13:38;;;;;;;8.10;5.32;;;;;;;11.91;100.00;100969.13;5073401;28;20519;-56
2023/08/28 02:16:08;;;;;;;9.38;5.70;;;;;;;11.96;100.00;100959.16;5073252;28;20033;-54
2023/08/28 02:18:36;;;;;;;9.00;5.68;;;;;;;11.90;100.00;100955.13;5073330;28;20041;-67
2023/08/28 02:21:04;;;;;;;8.35;5.97;;;;;;;11.92;100.00;100958.47;5072049;28;20044;-68
2023/08/28 02:23:32;;;;;;;9.80;4.85;;;;;;;11.88;100.00;100950.91;5068645;28;20484;-68
2023/08/28 02:26:00;;;;;;;8.88;5.13;;;;;;;11.88;100.00;100948.25;5069899;28;20048;-67
2023/08/28 02:28:28;;;;;;;8.70;5.40;;;;;;;11.79;100.00;100931.28;5069683;28;20056;-66
2023/08/28 02:30:59;;;;;;;8.25;5.50;;;;;;;11.83;100.00;100930.13;5068073;28;20091;-68
2023/08/28 02:33:28;;;;;;;9.18;5.78;;;;;;;11.73;100.00;100935.19;5069683;28;20075;-67
2023/08/28 02:35:56;;;;;;;8.15;5.63;;;;;;;11.69;100.00;100940.78;5071412;28;20391;-67
2023/08/28 02:38:24;;;;;;;9.18;5.97;;;;;;;11.61;100.00;100947.38;5068060;28;20052;-67
2023/08/28 02:40:52;;;;;;;9.68;5.85;;;;;;;11.61;100.00;100950.03;5069223;28;20041;-67
2023/08/28 02:43:20;;;;;;;9.48;5.72;;;;;;;11.58;100.00;100949.41;5069376;28;20064;-67
2023/08/28 02:45:48;;;;;;;9.88;5.75;;;;;;;11.63;100.00;100948.16;5068895;28;20492;-66
2023/08/28 02:48:18;;;;;;;8.82;5.72;;;;;;;11.72;100.00;100945.84;5069011;28;20059;-67
2023/08/28 02:50:49;;;;;;;11.32;5.80;;;;;;;11.69;100.00;100938.97;5071228;28;20430;-67
2023/08/28 02:53:17;;;;;;;9.18;5.22;;;;;;;11.71;100.00;100938.88;5072564;28;20052;-55
2023/08/28 02:56:25;;;;;;;12.50;5.65;;;;;;;11.70;100.00;100930.13;5072506;28;20045;-53
2023/08/28 02:58:56;;;;;;;10.10;5.70;;;;;;;11.67;100.00;100927.72;5072002;28;20045;-54
2023/08/28 03:01:26;;;;;;;9.50;6.10;;;;;;;11.61;100.00;100946.56;5072315;28;20036;-53
2023/08/28 03:03:56;;;;;;;7.95;6.28;;;;;;;11.70;100.00;100956.47;5072312;28;20425;-53
2023/08/28 03:06:24;;;;;;;9.43;5.75;;;;;;;11.65;100.00;100956.78;5072233;28;20479;-55
2023/08/28 03:08:52;;;;;;;8.93;5.90;;;;;;;11.62;100.00;100958.78;5072110;28;20113;-54
2023/08/28 03:11:20;;;;;;;10.35;5.93;;;;;;;11.54;100.00;100958.47;5072191;28;20048;-55
2023/08/28 03:13:49;;;;;;;10.27;6.10;;;;;;;11.47;100.00;100969.41;5072166;28;20048;-53
2023/08/28 03:16:17;;;;;;;12.07;7.10;;;;;;;11.39;100.00;100978.78;5072023;28;20403;-53
2023/08/28 03:18:45;;;;;;;10.13;7.00;;;;;;;11.30;100.00;100986.34;5072129;28;20052;-54
2023/08/28 03:21:14;;;;;;;11.32;7.25;;;;;;;11.32;100.00;100986.22;5071973;28;20044;-53
2023/08/28 03:23:42;;;;;;;12.93;6.55;;;;;;;11.33;100.00;100983.50;5072085;28;20052;-54
2023/08/28 03:26:11;;;;;;;10.57;6.82;;;;;;;11.44;100.00;100981.94;5071914;28;20503;-54
2023/08/28 03:28:39;;;;;;;9.55;6.80;;;;;;;11.48;100.00;100984.25;5070641;28;20052;-52
2023/08/28 03:31:07;;;;;;;11.20;7.00;;;;;;;11.48;100.00;100989.53;5071732;28;20491;-53
2023/08/28 03:33:36;;;;;;;10.38;6.70;;;;;;;11.44;100.00;100995.13;5071690;28;20157;-54
2023/08/28 03:36:05;;;;;;;10.07;6.90;;;;;;;11.45;100.00;100991.50;5071813;28;20050;-53
2023/08/28 03:38:35;;;;;;;10.15;6.20;;;;;;;11.48;100.00;100989.53;5071845;28;20055;-51
2023/08/28 03:41:08;;;;;;;9.05;6.93;;;;;;;11.42;100.00;100983.81;5071719;28;20051;-68
2023/08/28 03:43:36;;;;;;;9.82;6.53;;;;;;;11.43;100.00;100988.16;5068465;28;20051;-55
2023/08/28 03:46:05;;;;;;;10.02;7.57;;;;;;;11.41;100.00;100988.25;5068832;28;20050;-54
2023/08/28 03:48:33;;;;;;;9.18;6.78;;;;;;;11.38;100.00;100998.13;5071401;28;20045;-54
2023/08/28 03:51:01;;;;;;;9.18;6.72;;;;;;;11.42;100.00;100997.81;5071503;28;20064;-55
2023/08/28 03:53:30;;;;;;;10.68;6.82;;;;;;;11.37;100.00;101004.34;5071595;28;20048;-55
2023/08/28 03:55:59;;;;;;;12.88;7.07;;;;;;;11.38;100.00;101012.13;5071441;28;20123;-54
2023/08/28 03:58:27;;;;;;;11.73;7.45;;;;;;;11.42;100.00;101003.09;5071421;28;20483;-54
2023/08/28 04:00:55;;;;;;;9.93;7.32;;;;;;;11.41;100.00;101000.56;5071437;28;20048;-54
2023/08/28 04:03:23;;;;;;;10.77;6.85;;;;;;;11.42;100.00;100999.63;5071339;28;20090;-53
2023/08/28 04:05:52;;;;;;;10.98;7.72;;;;;;;11.41;100.00;101003.19;5071257;28;20106;-55
2023/08/28 04:08:21;;;;;;;11.57;7.80;;;;;;;11.30;100.00;101006.53;5071313;28;20051;-55
2023/08/28 04:10:49;;;;;;;9.10;7.22;;;;;;;11.25;100.00;101014.75;5071416;28;20127;-54
2023/08/28 04:13:18;;;;;;;10.40;7.15;;;;;;;11.35;100.00;101016.78;5071451;28;20127;-55
2023/08/28 04:15:47;;;;;;;11.13;7.55;;;;;;;11.28;100.00;101025.06;5071555;28;20095;-54
2023/08/28 04:18:18;;;;;;;10.80;7.25;;;;;;;11.20;100.00;101019.47;5071538;28;20045;-53
2023/08/28 04:20:46;;;;;;;12.32;8.02;;;;;;;11.20;100.00;101026.53;5072822;28;20048;-54
2023/08/28 04:23:14;;;;;;;11.90;8.48;;;;;;;11.14;100.00;101030.41;5075482;28;20059;-53
2023/08/28 04:25:42;;;;;;;11.20;7.88;;;;;;;11.16;100.00;101034.59;5075569;28;20558;-55
2023/08/28 04:28:10;;;;;;;12.15;7.72;;;;;;;11.20;100.00;101027.34;5075332;28;20083;-55
2023/08/28 04:30:40;;;;;;;12.52;8.45;;;;;;;11.24;100.00;101031.47;5075305;28;20044;-54
2023/08/28 04:33:09;;;;;;;10.85;8.30;;;;;;;11.31;100.00;101030.13;5075034;28;20052;-54
2023/08/28 04:35:37;;;;;;;11.38;8.90;;;;;;;11.31;100.00;101030.13;5075331;28;20433;-54
2023/08/28 04:38:05;;;;;;;11.90;8.63;;;;;;;11.39;100.00;101040.16;5073768;28;20458;-54
2023/08/28 04:40:33;;;;;;;10.73;8.65;;;;;;;11.33;100.00;101030.88;5075310;28;20053;-53
2023/08/28 04:43:01;;;;;;;12.38;9.63;;;;;;;11.35;100.00;101037.84;5075043;28;20048;-54
2023/08/28 04:45:30;;;;;;;13.57;9.40;;;;;;;11.49;100.00;101027.22;5075120;28;20135;-55
2023/08/28 04:47:59;;;;;;;13.75;9.98;;;;;;;11.52;100.00;101034.09;5075039;28;20133;-56
2023/08/28 04:50:27;;;;;;;13.43;10.45;;;;;;;11.43;100.00;101025.03;5074962;28;20083;-53
2023/08/28 04:52:55;;;;;;;14.88;10.68;;;;;;;11.62;100.00;101024.66;5075075;28;20044;-55
2023/08/28 04:55:23;;;;;;;12.30;10.18;;;;;;;11.57;100.00;101022.31;5074879;28;20504;-54
2023/08/28 04:57:50;;;;;;;15.95;10.88;;;;;;;11.64;100.00;101028.88;5074808;28;20442;-54
2023/08/28 05:00:19;;;;;;;12.93;9.73;;;;;;;11.70;100.00;101026.75;5074986;28;20059;-53
2023/08/28 05:02:48;;;;;;;14.77;10.95;;;;;;;11.63;100.00;101018.41;5074666;28;20052;-53
2023/08/28 05:05:17;;;;;;;13.27;11.15;;;;;;;11.72;100.00;101014.34;5075092;28;20048;-53
2023/08/28 05:07:45;;;;;;;13.50;10.88;;;;;;;11.67;100.00;101010.22;5074713;28;20127;-54
2023/08/28 05:10:13;;;;;;;13.93;11.15;;;;;;;11.64;100.00;101013.06;5074693;28;20404;-53
2023/08/28 05:12:41;;;;;;;14.80;11.07;;;;;;;11.70;100.00;101016.22;5074817;28;20510;-55
2023/08/28 05:15:12;;;;;;;18.45;11.75;;;;;;;11.70;100.00;101010.94;5074406;28;20060;-55
2023/08/28 05:17:41;;;;;;;15.50;11.75;;;;;;;11.71;100.00;101010.88;5074379;28;20044;-54
2023/08/28 05:20:10;;;;;;;13.82;11.85;;;;;;;11.78;100.00;101011.25;5073114;28;20056;-53
2023/08/28 05:22:40;;;;;;;14.25;11.57;;;;;;;11.82;100.00;101005.69;5073091;28;20061;-53
2023/08/28 05:25:08;;;;;;;13.10;10.65;;;;;;;11.84;100.00;101010.88;5074665;28;20510;-54
2023/08/28 05:27:37;;;;;;;13.85;11.00;;;;;;;11.94;100.00;101011.06;5074198;28;20064;-54
2023/08/28 05:30:06;;;;;;;14.93;11.13;;;;;;;12.01;100.00;101009.72;5073745;28;20131;-54
2023/08/28 05:32:34;;;;;;;12.55;10.60;;;;;;;11.95;100.00;101016.28;5073934;28;20040;-55
2023/08/28 05:35:04;;;;;;;15.02;12.70;;;;;;;11.93;100.00;101018.16;5073623;28;20056;-55
2023/08/28 05:37:32;;;;;;;15.68;12.90;;;;;;;11.99;100.00;101020.38;5073973;28;20495;-55
2023/08/28 05:40:01;;;;;;;14.95;12.77;;;;;;;12.04;100.00;101016.59;5074076;28;20514;-55
2023/08/28 05:42:29;;;;;;;17.63;13.32;;;;;;;12.05;100.00;101018.28;5073964;28;20064;-56
2023/08/28 05:44:57;;;;;;;16.85;11.88;;;;;;;12.08;100.00;101024.19;5074058;28;20044;-55
2023/08/28 05:47:25;;;;;;;18.45;14.00;;;;;;;12.10;100.00;101024.94;5073603;28;20052;-54
2023/08/28 05:49:54;;;;;;;16.77;13.45;;;;;;;12.17;100.00;101022.72;5073208;28;20045;-54
2023/08/28 05:52:22;;;;;;;15.88;14.13;;;;;;;12.25;100.00;101019.56;5073921;28;20059;-54
2023/08/28 05:54:52;;;;;;;15.20;13.60;;;;;;;12.30;100.00;101026.19;5073597;28;20044;-55
2023/08/28 05:57:23;;;;;;;17.05;13.98;;;;;;;12.37;100.00;101020.50;5074131;28;20407;-52
2023/08/28 05:59:51;;;;;;;17.88;15.68;;;;;;;12.33;100.00;101015.41;5073715;28;20033;-56
2023/08/28 06:02:20;;;;;;;21.17;16.55;;;;;;;12.34;100.00;101011.84;5072419;28;20053;-54
2023/08/28 06:04:52;;;;;;;19.38;15.73;;;;;;;12.37;100.00;101010.78;5073723;28;20044;-51
2023/08/28 06:07:20;;;;;;;19.75;16.65;;;;;;;12.45;100.00;101015.53;5073403;28;20048;-53
2023/08/28 06:09:48;;;;;;;19.33;16.08;;;;;;;12.52;100.00;101024.69;5073103;28;20055;-54
2023/08/28 06:12:16;;;;;;;21.95;17.10;;;;;;;12.62;100.00;101022.25;5073276;28;20479;-53
2023/08/28 06:14:49;;;;;;;21.60;17.77;;;;;;;12.67;100.00;101028.88;5072109;28;20426;-54
2023/08/28 06:17:17;;;;;;;19.02;16.20;;;;;;;12.74;100.00;101024.00;5073398;28;20076;-55
2023/08/28 06:19:46;;;;;;;19.42;16.50;;;;;;;12.78;100.00;101025.47;5071877;28;20381;-54
2023/08/28 06:22:14;;;;;;;20.45;16.95;;;;;;;12.85;100.00;101015.31;5073094;28;20135;-53
2023/08/28 06:24:42;;;;;;;19.95;15.80;;;;;;;12.92;100.00;101013.91;5073073;28;20052;-54
2023/08/28 06:27:13;;;;;;;19.50;15.88;;;;;;;12.97;100.00;101011.78;5073234;28;20040;-54
2023/08/28 06:29:41;;;;;;;19.80;15.60;;;;;;;13.03;100.00;101018.41;5072956;28;20042;-50
2023/08/28 06:32:11;;;;;;;21.95;17.02;;;;;;;13.13;100.00;101002.75;5073070;28;20066;-65
2023/08/28 06:34:39;;;;;;;19.13;15.52;;;;;;;13.21;100.00;101021.53;5069575;28;20396;-66
2023/08/28 06:37:07;;;;;;;20.75;16.17;;;;;;;13.31;100.00;101016.41;5068598;28;20044;-55
2023/08/28 06:39:35;;;;;;;21.17;15.40;;;;;;;13.37;100.00;101023.91;5070679;28;20054;-54
2023/08/28 06:42:03;;;;;;;15.98;14.23;;;;;;;13.49;100.00;101024.78;5070577;28;20094;-54
2023/08/28 06:44:34;;;;;;;17.73;15.32;;;;;;;13.54;100.00;101027.94;5072482;28;20048;-53
2023/08/28 06:47:02;;;;;;;19.05;16.63;;;;;;;13.63;100.00;101021.97;5072363;28;20135;-65
2023/08/28 06:49:32;;;;;;;19.05;15.70;;;;;;;13.69;100.00;101032.06;5069075;28;20099;-65
2023/08/28 06:52:00;;;;;;;18.38;15.55;;;;;;;13.77;100.00;101039.41;5067840;28;20044;-65
2023/08/28 06:54:28;;;;;;;20.35;15.65;;;;;;;13.87;100.00;101029.00;5071201;28;20436;-65
2023/08/28 06:57:16;;;;;;;17.80;15.23;;;;;;;13.98;100.00;101031.66;5072793;28;20043;-65
2023/08/28 06:59:48;;;;;;;16.42;13.85;;;;;;;14.06;100.00;101027.56;5069257;28;20041;-65
2023/08/28 07:02:17;;;;;;;17.08;15.00;;;;;;;14.13;100.00;101031.44;5069225;28;20484;-65
2023/08/28 07:04:46;;;;;;;17.50;14.55;;;;;;;14.21;100.00;101034.34;5069508;28;20048;-65
2023/08/28 07:07:17;;;;;;;17.13;14.57;;;;;;;14.30;100.00;101035.41;5068059;28;20044;-65
2023/08/28 07:09:45;;;;;;;16.38;14.00;;;;;;;14.39;100.00;101047.09;5071664;28;20050;-64
2023/08/28 07:12:16;;;;;;;16.35;13.38;;;;;;;14.44;100.00;101055.50;5069155;28;20041;-64
2023/08/28 07:14:44;;;;;;;18.42;14.10;;;;;;;14.51;100.00;101056.72;5068570;28;20143;-65
2023/08/28 07:17:15;;;;;;;15.88;12.43;;;;;;;14.56;100.00;101059.00;5068750;28;20048;-64
2023/08/28 07:19:43;;;;;;;16.33;13.25;;;;;;;14.61;100.00;101052.38;5069359;28;20052;-64
2023/08/28 07:22:13;;;;;;;16.90;13.45;;;;;;;14.70;100.00;101058.78;5071807;28;20044;-64
2023/08/28 07:24:41;;;;;;;15.82;13.55;;;;;;;14.85;100.00;101054.91;5069274;28;20055;-64
2023/08/28 07:27:10;;;;;;;18.25;14.57;;;;;;;15.06;100.00;101054.13;5068406;28;20503;-64
2023/08/28 07:29:38;;;;;;;16.85;15.05;;;;;;;15.33;100.00;101056.34;5067879;28;20049;-64
2023/08/28 07:32:07;;;;;;;15.93;14.27;;;;;;;15.51;100.00;101047.84;5068223;28;20091;-63
2023/08/28 07:34:35;;;;;;;14.93;12.25;;;;;;;15.58;100.00;101059.63;5070677;28;20498;-64
2023/08/28 07:37:04;;;;;;;13.20;11.10;;;;;;;15.71;100.00;101054.97;5071865;28;20045;-64
2023/08/28 07:39:34;;;;;;;19.40;12.98;;;;;;;15.87;100.00;101048.44;5070591;28;20518;-63
2023/08/28 07:42:03;;;;;;;13.77;11.73;;;;;;;16.14;100.00;101047.06;5068468;28;20041;-63
2023/08/28 07:44:32;;;;;;;13.32;11.00;;;;;;;16.36;100.00;101065.47;5070190;28;20499;-63
2023/08/28 07:47:05;;;;;;;16.42;11.20;;;;;;;16.41;100.00;101053.63;5071727;28;20399;-63
2023/08/28 07:49:33;;;;;;;13.95;10.55;;;;;;;16.36;100.00;101062.81;5071549;28;20135;-63
2023/08/28 07:52:02;;;;;;;13.25;10.95;;;;;;;16.51;100.00;101065.09;5071497;28;20040;-63
2023/08/28 07:54:30;;;;;;;12.48;10.10;;;;;;;16.67;100.00;101068.09;5071438;28;20052;-63
2023/08/28 07:56:59;;;;;;;14.32;10.18;;;;;;;16.81;100.00;101063.38;5069786;28;20045;-63
2023/08/28 07:59:28;;;;;;;13.13;9.85;;;;;;;16.76;100.00;101069.13;5065882;28;20687;-63
2023/08/28 08:01:57;;;;;;;11.63;9.68;;;;;;;16.95;100.00;101075.50;5067726;28;20036;-63
2023/08/28 08:04:26;;;;;;;12.35;9.48;;;;;;;16.95;100.00;101073.69;5071365;28;20074;-63
2023/08/28 08:06:55;;;;;;;12.82;8.60;;;;;;;17.04;100.00;101070.22;5069298;28;20602;-63
2023/08/28 08:09:23;;;;;;;10.98;9.73;;;;;;;17.19;100.00;101067.16;5068026;28;20071;-63
2023/08/28 08:11:51;;;;;;;13.43;8.73;;;;;;;17.40;100.00;101070.53;5068284;28;20184;-63
2023/08/28 08:14:22;;;;;;;10.02;7.75;;;;;;;17.56;100.00;101069.97;5067779;28;20060;-63
2023/08/28 08:16:50;;;;;;;11.52;7.65;;;;;;;17.71;100.00;101065.06;5070284;28;20535;-63
2023/08/28 08:19:18;;;;;;;10.95;8.25;;;;;;;17.96;100.00;101076.13;5068574;28;20467;-63
2023/08/28 08:21:46;;;;;;;9.68;7.90;;;;;;;18.07;100.00;101073.28;5066799;28;20098;-63
2023/08/28 08:24:14;;;;;;;12.68;7.50;;;;;;;18.36;100.00;101072.38;5068385;28;20053;-63
2023/08/28 08:26:43;;;;;;;9.98;6.57;;;;;;;18.63;100.00;101069.91;5067543;28;20434;-63
2023/08/28 08:29:13;;;;;;;9.32;6.57;;;;;;;18.75;100.00;101069.56;5070937;28;20499;-63
2023/08/28 08:31:43;;;;;;;9.38;6.63;;;;;;;18.91;100.00;101076.13;5071290;28;20057;-63
2023/08/28 08:34:11;;;;;;;10.40;6.55;;;;;;;19.14;100.00;101067.69;5070781;28;20064;-63
2023/08/28 08:36:39;;;;;;;10.35;5.30;;;;;;;19.23;100.00;101074.78;5069525;28;20056;-63
2023/08/28 08:39:08;;;;;;;8.32;4.93;;;;;;;19.14;100.00;101075.66;5068192;28;20063;-63
2023/08/28 08:41:37;;;;;;;7.20;4.18;;;;;;;19.41;100.00;101078.31;5067275;28;20048;-63
2023/08/28 08:44:06;;;;;;;7.78;3.60;;;;;;;19.72;100.00;101077.06;5070284;28;20049;-63
2023/08/28 08:46:35;;;;;;;7.10;3.33;;;;;;;19.72;100.00;101075.22;5066272;28;20049;-63
2023/08/28 08:49:08;;;;;;;6.78;3.50;;;;;;;19.88;100.00;101082.56;5067714;28;20055;-63
2023/08/28 08:51:42;;;;;;;6.90;3.55;;;;;;;20.23;100.00;101078.13;5065670;28;20521;-63
2023/08/28 08:54:25;;;;;;;6.22;3.20;;;;;;;20.50;100.00;101081.59;5067993;28;20411;-63
2023/08/28 08:57:00;;;;;;;5.55;2.78;;;;;;;20.53;100.00;101083.09;5069857;28;20039;-63
2023/08/28 08:59:28;;;;;;;6.43;3.13;;;;;;;20.68;100.00;101088.69;5067404;28;20482;-62
2023/08/28 09:02:00;;;;;;;5.85;2.20;;;;;;;20.87;100.00;101093.78;5070205;28;20471;-63
2023/08/28 09:04:30;;;;;;;5.75;2.58;;;;;;;21.13;100.00;101089.38;5070782;28;20106;-63
2023/08/28 09:06:59;;;;;;;6.47;2.80;;;;;;;21.06;100.00;101084.66;5070845;28;20052;-62
2023/08/28 09:09:28;;;;;;;6.70;2.80;;;;;;;21.23;100.00;101087.41;5069943;28;20057;-63
2023/08/28 09:11:56;;;;;;;4.40;2.33;;;;;;;21.22;100.00;101083.06;5071145;28;20482;-63
2023/08/28 09:14:24;;;;;;;4.97;1.92;;;;;;;21.35;100.00;101086.09;5071618;28;20048;-63
2023/08/28 09:16:55;;;;;;;4.68;1.90;;;;;;;21.81;100.00;101085.63;5074047;28;20052;-63
2023/08/28 09:19:25;;;;;;;6.32;2.25;;;;;;;21.85;100.00;101086.94;5074673;28;20056;-63
2023/08/28 09:21:56;;;;;;;6.60;2.25;;;;;;;22.19;100.00;101080.56;5071596;28;20045;-63
2023/08/28 09:24:25;;;;;;;4.93;1.88;;;;;;;22.16;100.00;101078.22;5071210;28;20111;-62
2023/08/28 09:26:54;;;;;;;6.43;2.00;;;;;;;22.31;100.00;101067.63;5071030;28;20482;-62
2023/08/28 09:29:23;;;;;;;2.88;1.40;;;;;;;22.37;100.00;101072.31;5070996;28;20050;-62
2023/08/28 09:31:52;;;;;;;5.13;2.20;;;;;;;22.21;100.00;101078.56;5070878;28;20051;-63
2023/08/28 09:34:21;;;;;;;4.40;1.90;;;;;;;22.73;100.00;101071.88;5071913;28;20060;-61
2023/08/28 09:36:51;;;;;;;4.93;2.20;;;;;;;22.89;100.00;101065.59;5074041;28;20612;-61
2023/08/28 09:39:21;;;;;;;3.42;1.85;;;;;;;23.03;100.00;101073.88;5074171;28;20032;-56
2023/08/28 09:41:50;;;;;;;5.25;2.63;;;;;;;23.00;100.00;101067.06;5072691;28;20053;-63
2023/08/28 09:44:19;;;;;;;6.50;2.03;;;;;;;23.40;100.00;101064.31;5071413;28;21095;-63
2023/08/28 09:46:49;;;;;;;4.70;2.40;;;;;;;23.35;100.00;101069.38;5072042;28;20389;-63
2023/08/28 09:49:18;;;;;;;5.03;2.30;;;;;;;23.48;100.00;101066.91;5073988;28;20121;-56
2023/08/28 09:51:49;;;;;;;5.18;2.00;;;;;;;23.31;100.00;101068.88;5073650;28;20495;-56
2023/08/28 09:54:17;;;;;;;5.53;2.33;;;;;;;23.98;100.00;101061.97;5073453;28;20060;-56
2023/08/28 09:56:50;;;;;;;4.63;1.80;;;;;;;24.47;100.00;101060.59;5072881;28;20075;-56
2023/08/28 09:59:19;;;;;;;5.82;2.15;;;;;;;24.29;96.45;101063.66;5070490;28;20052;-56
2023/08/28 10:01:48;;;;;;;3.72;1.65;;;;;;;24.82;95.64;101062.72;5069899;28;20048;-55
2023/08/28 10:04:20;;;;;;;4.80;1.60;;;;;;;25.14;97.30;101070.31;5070467;28;20052;-56
2023/08/28 10:06:50;;;;;;;3.38;1.90;;;;;;;25.47;94.28;101059.06;5068863;28;20147;-56
2023/08/28 10:09:22;;;;;;;5.60;1.65;;;;;;;25.24;86.99;101069.19;5070659;28;20037;-56
2023/08/28 10:11:52;;;;;;;3.17;1.60;;;;;;;25.64;96.01;101059.63;5069008;28;20139;-56
2023/08/28 10:14:23;;;;;;;3.10;1.42;;;;;;;26.07;88.34;101058.75;5070447;28;20044;-56
2023/08/28 10:16:57;;;;;;;3.70;1.20;;;;;;;26.52;86.74;101061.06;5068886;28;20052;-56
2023/08/28 10:19:29;;;;;;;4.13;1.27;;;;;;;26.17;79.69;101062.94;5072574;28;20068;-55
2023/08/28 10:21:58;;;;;;;2.00;0.93;;;;;;;25.94;80.70;101061.31;5072366;28;20125;-56
2023/08/28 10:24:28;;;;;;;2.08;1.10;;;;;;;25.94;80.79;101058.63;5070091;28;20487;-56
2023/08/28 10:26:59;;;;;;;1.55;1.08;;;;;;;26.19;79.45;101052.78;5069949;28;20381;-57
2023/08/28 10:29:27;;;;;;;2.38;1.10;;;;;;;26.20;76.80;101052.59;5069971;28;20057;-55
2023/08/28 10:31:57;;;;;;;3.15;1.30;;;;;;;26.16;79.78;101051.31;5072659;28;20040;-57
2023/08/28 10:34:27;;;;;;;2.78;1.10;;;;;;;26.47;79.54;101048.16;5072878;28;20143;-57
2023/08/28 10:36:55;;;;;;;2.67;1.15;;;;;;;26.15;75.17;101055.88;5072968;28;20052;-56
2023/08/28 10:39:42;;;;;;;2.67;0.90;;;;;;;26.48;82.00;101057.09;5070492;28;20063;-56
2023/08/28 10:42:15;;;;;;;3.33;0.95;;;;;;;26.65;75.56;101052.19;5070045;28;20043;-56
2023/08/28 10:44:44;;;;;;;4.20;1.23;;;;;;;26.87;78.18;101058.28;5069375;28;20049;-56
2023/08/28 10:47:16;;;;;;;3.20;1.10;;;;;;;26.57;75.24;101058.56;5071750;28;20099;-56
2023/08/28 10:49:46;;;;;;;2.47;1.08;;;;;;;25.78;74.99;101057.88;5069756;28;20601;-56
2023/08/28 10:52:20;;;;;;;3.45;0.98;;;;;;;25.50;76.13;101052.47;5068483;28;20036;-55
2023/08/28 10:54:48;;;;;;;2.38;1.08;;;;;;;25.78;75.49;101057.88;5069157;28;20072;-56
2023/08/28 10:57:26;;;;;;;3.47;1.10;;;;;;;26.27;79.56;101052.63;5069581;28;20411;-56
2023/08/28 10:59:55;;;;;;;2.08;0.90;;;;;;;26.38;78.22;101043.16;5070438;28;20492;-56
2023/08/28 11:02:23;;;;;;;2.83;1.00;;;;;;;26.59;75.09;101039.53;5072525;28;20048;-55
2023/08/28 11:05:13;;;;;;;3.38;1.10;;;;;;;26.72;75.61;101039.56;5070047;28;20044;-56
2023/08/28 11:07:45;;;;;;;4.57;0.90;;;;;;;26.78;72.91;101043.34;5066586;28;20051;-56
2023/08/28 11:10:18;;;;;;;1.75;0.82;;;;;;;26.75;67.31;101049.97;5069260;28;20059;-56
2023/08/28 11:12:56;;;;;;;2.65;1.00;;;;;;;26.70;64.95;101041.66;5068919;28;20040;-55
2023/08/28 11:15:34;;;;;;;3.05;0.70;;;;;;;26.82;70.10;101031.13;5071310;28;20049;-55
2023/08/28 11:18:30;;;;;;;3.92;0.90;;;;;;;26.73;71.28;101027.75;5070723;28;20140;-56
2023/08/28 11:21:00;;;;;;;1.50;0.90;;;;;;;26.80;66.49;101028.59;5021629;28;20131;-56
2023/08/28 11:23:35;;;;;;;4.65;1.20;;;;;;;26.52;68.15;101022.47;5067577;28;20063;-55